Time;durP1;ratioP1;P1;durP2;ratioP2;P2;SDS_P1;SDS_P2;PMS_P1;PMS_P2;Temp;Humidity;BMP_temperature;BMP_pressure;BME280_temperature;BME280_humidity;BME280_pressure;Samples;Min_cycle;Max_cycle;Signal;HPM_P1;HPM_P2
2023/12/27 00:00:34;;;;;;;;;1.00;1.00;;;;;21.66;57.18;100340.48;111287;1253;20167;-31
2023/12/27 00:03:21;;;;;;;;;1.00;1.00;;;;;21.67;57.10;100340.81;111312;1269;22486;-31
2023/12/27 00:05:48;;;;;;;;;1.00;1.00;;;;;21.61;57.03;100338.41;111369;1253;19642;-31
2023/12/27 00:08:15;;;;;;;;;3.00;3.00;;;;;21.60;57.23;100346.21;111309;1254;20059;-31
2023/12/27 00:10:43;;;;;;;;;1.00;1.00;;;;;21.61;57.24;100347.67;111470;1268;20695;-31
2023/12/27 00:13:10;;;;;;;;;1.00;1.00;;;;;21.63;57.16;100353.11;111288;1253;19693;-31
2023/12/27 00:15:37;;;;;;;;;3.00;3.00;;;;;21.59;57.22;100358.48;111516;1268;18691;-31
2023/12/27 00:18:05;;;;;;;;;1.00;1.00;;;;;21.62;57.06;100360.91;111344;1253;20782;-31
2023/12/27 00:20:32;;;;;;;;;1.00;1.00;;;;;21.63;57.04;100364.94;111516;1253;20894;-31
2023/12/27 00:23:00;;;;;;;;;3.00;1.00;;;;;21.64;56.99;100374.09;111282;1253;19980;-31
2023/12/27 00:25:27;;;;;;;;;1.00;1.00;;;;;21.60;56.99;100384.48;111552;1269;20672;-30
2023/12/27 00:27:54;;;;;;;;;2.00;1.00;;;;;21.57;57.01;100384.29;111232;1253;19694;-31
2023/12/27 00:30:21;;;;;;;;;1.00;1.00;;;;;21.59;56.94;100381.54;111294;1254;20127;-31
2023/12/27 00:32:49;;;;;;;;;3.00;3.00;;;;;21.61;56.73;100378.59;111286;1254;20828;-31
2023/12/27 00:35:16;;;;;;;;;1.00;1.00;;;;;21.60;56.66;100381.31;111282;1253;19688;-31
2023/12/27 00:37:43;;;;;;;;;2.00;2.00;;;;;21.62;56.61;100384.19;111360;1253;20030;-31
2023/12/27 00:40:11;;;;;;;;;1.00;1.00;;;;;21.62;56.81;100385.77;111371;1253;20782;-31
2023/12/27 00:42:38;;;;;;;;;1.00;1.00;;;;;21.63;56.69;100387.56;111469;1253;19779;-31
2023/12/27 00:45:05;;;;;;;;;1.00;1.00;;;;;21.58;56.74;100396.70;111380;1268;18759;-31
2023/12/27 00:47:33;;;;;;;;;1.00;1.00;;;;;21.62;56.52;100409.42;111504;1260;20999;-31
2023/12/27 00:50:00;;;;;;;;;1.00;1.00;;;;;21.63;56.42;100414.55;111259;1253;19695;-31
2023/12/27 00:52:27;;;;;;;;;1.00;1.00;;;;;21.64;56.62;100423.42;111246;1253;20409;-31
2023/12/27 00:54:54;;;;;;;;;1.00;1.00;;;;;21.65;56.50;100425.88;111287;1260;20754;-31
2023/12/27 00:57:22;;;;;;;;;1.00;1.00;;;;;21.66;56.45;100424.11;111299;1254;19597;-31
2023/12/27 00:59:49;;;;;;;;;2.00;1.00;;;;;21.62;56.29;100427.86;111450;1253;20060;-31
2023/12/27 01:02:16;;;;;;;;;1.67;1.00;;;;;21.59;56.48;100439.33;111499;1252;20723;-31
2023/12/27 01:04:44;;;;;;;;;1.00;1.00;;;;;21.61;56.11;100443.66;111523;1254;19696;-31
2023/12/27 01:07:11;;;;;;;;;1.00;1.00;;;;;21.57;56.36;100445.00;111471;1252;19996;-31
2023/12/27 01:09:38;;;;;;;;;1.00;1.00;;;;;21.57;56.31;100443.31;111557;1252;21979;-31
2023/12/27 01:12:06;;;;;;;;;1.00;1.00;;;;;21.58;55.87;100453.88;111288;1252;330385;-31
2023/12/27 01:14:33;;;;;;;;;1.00;1.00;;;;;21.59;55.89;100455.23;111458;1252;20200;-31
2023/12/27 01:17:00;;;;;;;;;1.00;1.00;;;;;21.57;55.82;100447.13;111441;1252;20742;-31
2023/12/27 01:19:28;;;;;;;;;1.00;1.00;;;;;21.57;55.90;100448.23;111524;1253;21073;-31
2023/12/27 01:21:55;;;;;;;;;1.00;1.00;;;;;21.55;55.72;100445.35;111471;1252;20194;-31
2023/12/27 01:24:22;;;;;;;;;1.00;1.00;;;;;21.54;55.77;100446.66;111598;1267;19336;-31
2023/12/27 01:26:49;;;;;;;;;1.00;1.00;;;;;21.54;55.52;100450.59;111508;1260;19431;-31
2023/12/27 01:29:17;;;;;;;;;1.00;1.00;;;;;21.55;55.63;100459.30;111639;1253;20105;-31
2023/12/27 01:31:44;;;;;;;;;1.00;1.00;;;;;21.57;55.52;100461.46;111421;1267;20777;-31
2023/12/27 01:34:11;;;;;;;;;1.00;1.00;;;;;21.56;55.26;100468.45;111435;1252;19714;-31
2023/12/27 01:36:39;;;;;;;;;1.00;1.00;;;;;21.58;55.37;100473.35;111508;1268;18633;-31
2023/12/27 01:39:07;;;;;;;;;1.00;1.00;;;;;21.58;55.12;100474.48;111439;1260;21981;-31
2023/12/27 01:41:34;;;;;;;;;1.00;1.00;;;;;21.59;55.24;100482.45;111478;1260;19535;-31
2023/12/27 01:44:01;;;;;;;;;3.00;3.00;;;;;21.52;55.08;100489.62;111451;1268;18678;-31
2023/12/27 01:46:28;;;;;;;;;1.00;1.00;;;;;21.48;55.26;100488.98;111544;1252;20660;-31
2023/12/27 01:48:56;;;;;;;;;1.00;1.00;;;;;21.48;55.31;100487.35;111422;1254;19647;-31
2023/12/27 01:51:23;;;;;;;;;1.00;1.00;;;;;21.52;54.87;100488.32;111582;1252;20093;-31
2023/12/27 01:53:50;;;;;;;;;1.00;1.00;;;;;21.53;54.87;100488.70;111503;1252;20706;-30
2023/12/27 01:56:18;;;;;;;;;1.00;1.00;;;;;21.53;54.98;100496.16;111666;1267;18225;-31
2023/12/27 01:58:45;;;;;;;;;1.00;1.00;;;;;21.54;54.78;100494.02;111458;1260;20179;-30
2023/12/27 02:01:12;;;;;;;;;1.00;1.00;;;;;21.55;54.65;100488.73;111724;1252;21001;-31
2023/12/27 02:03:39;;;;;;;;;2.00;1.00;;;;;21.54;54.52;100490.27;111541;1252;19637;-31
2023/12/27 02:06:07;;;;;;;;;1.00;1.00;;;;;21.55;54.67;100496.09;111684;1260;19938;-31
2023/12/27 02:08:34;;;;;;;;;1.00;1.00;;;;;21.50;54.69;100499.83;111516;1252;21960;-31
2023/12/27 02:11:01;;;;;;;;;1.00;1.00;;;;;21.50;54.41;100499.89;111422;1267;18219;-30
2023/12/27 02:13:29;;;;;;;;;1.00;1.00;;;;;21.49;54.39;100505.72;111604;1253;20140;-31
2023/12/27 02:15:56;;;;;;;;;1.00;1.00;;;;;21.47;54.39;100509.71;111430;1268;20797;-31
2023/12/27 02:18:23;;;;;;;;;1.00;1.00;;;;;21.44;54.51;100510.92;111629;1252;19651;-30
2023/12/27 02:20:51;;;;;;;;;1.00;1.00;;;;;21.46;54.48;100513.15;111506;1252;19957;-30
2023/12/27 02:23:18;;;;;;;;;1.00;1.00;;;;;21.44;54.46;100523.34;111681;1267;21863;-31
2023/12/27 02:25:45;;;;;;;;;1.00;1.00;;;;;21.41;54.19;100527.39;111601;1268;18237;-30
2023/12/27 02:28:12;;;;;;;;;1.00;1.00;;;;;21.41;54.53;100527.34;111715;1267;20109;-31
2023/12/27 02:30:40;;;;;;;;;1.00;1.00;;;;;21.41;54.37;100532.19;111652;1252;20763;-31
2023/12/27 02:33:07;;;;;;;;;1.00;1.00;;;;;21.41;54.53;100528.05;111633;1267;21207;-31
2023/12/27 02:35:34;;;;;;;;;1.00;1.00;;;;;21.39;54.43;100534.66;111678;1253;20083;-31
2023/12/27 02:38:02;;;;;;;;;1.00;1.00;;;;;21.39;54.33;100535.41;111470;1260;20769;-31
2023/12/27 02:40:29;;;;;;;;;1.00;1.00;;;;;21.41;54.24;100540.48;111599;1253;19620;-31
2023/12/27 02:42:56;;;;;;;;;1.00;1.00;;;;;21.46;53.98;100544.54;111445;1260;20161;-30
2023/12/27 02:45:23;;;;;;;;;1.00;1.00;;;;;21.42;53.99;100550.39;111631;1252;20851;-31
2023/12/27 02:47:51;;;;;;;;;1.00;1.00;;;;;21.43;53.78;100558.29;111525;1268;19524;-31
2023/12/27 02:50:18;;;;;;;;;1.00;1.00;;;;;21.44;54.06;100566.52;111703;1252;20024;-31
2023/12/27 02:52:45;;;;;;;;;1.00;1.00;;;;;21.41;53.89;100569.90;111539;1252;20859;-31
2023/12/27 02:55:13;;;;;;;;;1.00;1.00;;;;;21.40;53.91;100576.61;111430;1253;19672;-31
2023/12/27 02:57:40;;;;;;;;;1.00;1.00;;;;;21.43;53.64;100584.94;111598;1252;20073;-31
2023/12/27 03:00:07;;;;;;;;;1.00;1.00;;;;;21.43;53.88;100584.39;111428;1267;19417;-31
2023/12/27 03:02:35;;;;;;;;;1.00;1.00;;;;;21.40;54.05;100590.34;111639;1252;18228;-31
2023/12/27 03:05:02;;;;;;;;;1.00;1.00;;;;;21.41;53.73;100593.39;111489;1267;18635;-31
2023/12/27 03:07:29;;;;;;;;;3.00;3.00;;;;;21.44;53.53;100591.90;111571;1252;20757;-31
2023/12/27 03:09:56;;;;;;;;;1.00;1.00;;;;;21.43;53.64;100594.04;111441;1252;20120;-31
2023/12/27 03:12:24;;;;;;;;;1.00;1.00;;;;;21.39;53.64;100596.56;111433;1268;19963;-31
2023/12/27 03:14:51;;;;;;;;;1.00;1.00;;;;;21.38;53.53;100600.16;111477;1252;20946;-30
2023/12/27 03:17:18;;;;;;;;;1.00;1.00;;;;;21.41;53.45;100607.84;111533;1253;19717;-30
2023/12/27 03:19:46;;;;;;;;;1.00;1.00;;;;;21.37;53.53;100611.00;111517;1253;20035;-31
2023/12/27 03:22:13;;;;;;;;;1.00;1.00;;;;;21.35;53.52;100613.14;111485;1267;19377;-30
2023/12/27 03:24:41;;;;;;;;;1.00;1.00;;;;;21.36;53.70;100619.89;111556;1252;18180;-30
2023/12/27 03:27:08;;;;;;;;;1.00;1.00;;;;;21.36;53.59;100619.52;111508;1253;20096;-31
2023/12/27 03:29:35;;;;;;;;;1.00;1.00;;;;;21.37;53.62;100616.95;111589;1267;20795;-31
2023/12/27 03:32:03;;;;;;;;;1.00;1.00;;;;;21.37;53.54;100622.19;111471;1252;19677;-31
2023/12/27 03:34:30;;;;;;;;;1.00;1.00;;;;;21.39;53.51;100626.59;111581;1267;18487;-31
2023/12/27 03:36:57;;;;;;;;;1.00;1.00;;;;;21.40;53.39;100627.08;111494;1267;19334;-31
2023/12/27 03:39:25;;;;;;;;;1.00;1.00;;;;;21.39;53.17;100630.84;111449;1253;20852;-31
2023/12/27 03:41:52;;;;;;;;;1.00;1.00;;;;;21.37;53.24;100630.67;111567;1252;18798;-31
2023/12/27 03:44:19;;;;;;;;;1.00;1.00;;;;;21.34;53.25;100629.77;111503;1253;20837;-30
2023/12/27 03:46:47;;;;;;;;;1.00;1.00;;;;;21.36;53.53;100630.68;111474;1260;20794;-31
2023/12/27 03:49:14;;;;;;;;;1.00;1.00;;;;;21.34;53.19;100620.61;111525;1252;20091;-31
2023/12/27 03:51:41;;;;;;;;;1.00;1.00;;;;;21.33;53.26;100628.02;111448;1267;20703;-31
2023/12/27 03:54:08;;;;;;;;;1.00;1.00;;;;;21.36;53.30;100632.80;111499;1253;19620;-31
2023/12/27 03:56:36;;;;;;;;;4.00;1.00;;;;;21.37;53.08;100632.80;111423;1267;18588;-31
2023/12/27 03:59:05;;;;;;;;;1.00;1.00;;;;;21.34;53.07;100635.00;111463;1252;20785;-31
2023/12/27 04:01:33;;;;;;;;;1.00;1.00;;;;;21.33;53.11;100640.50;111496;1260;19934;-31
2023/12/27 04:04:00;;;;;;;;;1.00;1.00;;;;;21.33;53.10;100640.45;111561;1253;21225;-31
2023/12/27 04:06:27;;;;;;;;;1.00;1.00;;;;;21.33;52.98;100640.40;111585;1253;20856;-31
2023/12/27 04:08:55;;;;;;;;;1.00;1.00;;;;;21.33;53.00;100644.75;111589;1253;19728;-31
2023/12/27 04:11:22;;;;;;;;;1.00;1.00;;;;;21.35;52.98;100648.72;111589;1260;18689;-31
2023/12/27 04:13:49;;;;;;;;;1.00;1.00;;;;;21.34;52.75;100652.16;111589;1267;19387;-31
2023/12/27 04:16:17;;;;;;;;;1.00;1.00;;;;;21.37;52.88;100657.00;111426;1253;20848;-31
2023/12/27 04:18:44;;;;;;;;;1.00;1.00;;;;;21.37;52.82;100668.61;111506;1267;18601;-31
2023/12/27 04:21:11;;;;;;;;;1.00;1.00;;;;;21.33;52.80;100674.93;111454;1268;19266;-31
2023/12/27 04:23:39;;;;;;;;;1.00;1.00;;;;;21.31;52.63;100680.12;111464;1267;18708;-31
2023/12/27 04:26:06;;;;;;;;;1.00;1.00;;;;;21.32;52.94;100678.20;111480;1268;18606;-31
2023/12/27 04:28:33;;;;;;;;;1.00;1.00;;;;;21.33;52.76;100684.64;111490;1260;20822;-31
2023/12/27 04:31:00;;;;;;;;;1.00;1.00;;;;;21.32;52.96;100687.42;111535;1267;18267;-32
2023/12/27 04:33:28;;;;;;;;;1.00;1.00;;;;;21.32;52.79;100693.09;111579;1252;20076;-30
2023/12/27 04:35:55;;;;;;;;;1.00;1.00;;;;;21.32;52.69;100696.63;111561;1260;20725;-30
2023/12/27 04:38:22;;;;;;;;;1.00;1.00;;;;;21.35;52.49;100705.07;111460;1253;19695;-31
2023/12/27 04:40:50;;;;;;;;;;;;;;;21.33;52.52;100704.69;111564;1260;19966;-31
2023/12/27 04:43:17;;;;;;;;;1.00;1.00;;;;;21.32;52.73;100713.08;111518;1253;20907;-30
2023/12/27 04:45:44;;;;;;;;;1.00;1.00;;;;;21.29;52.62;100724.63;111428;1252;20443;-31
2023/12/27 04:48:12;;;;;;;;;1.00;1.00;;;;;21.27;52.74;100717.73;111469;1252;20253;-31
2023/12/27 04:50:39;;;;;;;;;1.00;1.00;;;;;21.31;52.68;100723.98;111424;1267;19388;-30
2023/12/27 04:53:07;;;;;;;;;1.00;1.00;;;;;21.34;52.53;100729.59;111452;1253;19696;-31
2023/12/27 04:55:34;;;;;;;;;3.00;3.00;;;;;21.30;52.38;100730.16;111460;1252;20345;-31
2023/12/27 04:58:01;;;;;;;;;1.00;1.00;;;;;21.27;52.61;100729.98;111441;1267;18444;-31
2023/12/27 05:00:29;;;;;;;;;1.00;1.00;;;;;21.27;52.65;100737.17;111438;1252;19659;-31
2023/12/27 05:02:56;;;;;;;;;1.00;1.00;;;;;21.27;52.61;100735.86;111493;1252;21247;-31
2023/12/27 05:05:23;;;;;;;;;1.00;1.00;;;;;21.26;52.48;100740.39;111476;1267;20799;-31
2023/12/27 05:07:50;;;;;;;;;1.00;1.00;;;;;21.26;52.71;100738.59;111551;1252;18763;-31
2023/12/27 05:10:18;;;;;;;;;1.00;1.00;;;;;21.28;52.48;100739.79;111588;1260;20275;-31
2023/12/27 05:12:45;;;;;;;;;1.00;1.00;;;;;21.28;52.38;100742.24;111585;1253;20778;-31
2023/12/27 05:15:12;;;;;;;;;1.00;1.00;;;;;21.26;52.62;100740.61;111633;1260;19560;-30
2023/12/27 05:17:40;;;;;;;;;1.00;1.00;;;;;21.27;52.50;100736.80;111440;1267;18644;-31
2023/12/27 05:20:07;;;;;;;;;1.00;1.00;;;;;21.28;52.44;100743.26;111672;1267;19413;-31
2023/12/27 05:22:39;;;;;;;;;1.00;1.00;;;;;21.31;52.28;100752.59;111433;1252;18758;-31
2023/12/27 05:25:06;;;;;;;;;1.00;1.00;;;;;21.31;52.21;100762.07;111451;1267;18610;-31
2023/12/27 05:27:34;;;;;;;;;1.00;1.00;;;;;21.30;52.15;100769.10;111491;1260;20689;-31
2023/12/27 05:30:01;;;;;;;;;1.00;1.00;;;;;21.31;52.09;100774.66;111450;1267;18247;-31
2023/12/27 05:32:28;;;;;;;;;1.00;1.00;;;;;21.27;52.26;100777.49;111559;1252;19236;-31
2023/12/27 05:34:56;;;;;;;;;1.00;1.00;;;;;21.27;52.13;100782.02;111499;1253;19264;-31
2023/12/27 05:37:23;;;;;;;;;1.00;1.00;;;;;21.27;52.07;100791.50;111608;1260;20796;-31
2023/12/27 05:39:50;;;;;;;;;1.00;1.00;;;;;21.27;52.25;100800.48;111429;1252;20002;-31
2023/12/27 05:42:18;;;;;;;;;1.00;1.00;;;;;21.30;51.87;100806.27;111658;1252;20865;-30
2023/12/27 05:44:45;;;;;;;;;1.00;1.00;;;;;21.29;52.09;100811.80;111483;1252;18735;-31
2023/12/27 05:47:12;;;;;;;;;1.00;1.00;;;;;21.28;52.10;100820.38;111689;1252;18945;-31
2023/12/27 05:49:39;;;;;;;;;1.00;1.00;;;;;21.28;52.19;100818.95;111520;1260;19597;-31
2023/12/27 05:52:07;;;;;;;;;1.00;1.00;;;;;21.25;52.19;100812.54;111651;1253;19680;-31
2023/12/27 05:54:34;;;;;;;;;1.00;1.00;;;;;21.24;51.99;100818.91;111513;1267;18673;-31
2023/12/27 05:57:02;;;;;;;;;1.00;1.00;;;;;21.25;51.97;100821.90;111557;1267;19393;-31
2023/12/27 05:59:29;;;;;;;;;1.00;1.00;;;;;21.26;51.78;100830.67;111518;1267;18673;-31
2023/12/27 06:01:57;;;;;;;;;1.00;1.00;;;;;21.28;52.12;100838.31;111487;1254;20023;-31
2023/12/27 06:04:24;;;;;;;;;1.00;1.00;;;;;21.28;52.00;100836.34;111596;1252;22083;-31
2023/12/27 06:06:52;;;;;;;;;1.00;1.00;;;;;21.28;51.72;100838.36;111437;1254;19667;-31
2023/12/27 06:09:19;;;;;;;;;1.00;1.00;;;;;21.26;51.94;100841.35;111543;1267;18762;-31
2023/12/27 06:11:46;;;;;;;;;1.00;1.00;;;;;21.27;51.81;100842.23;111435;1268;20724;-31
2023/12/27 06:14:13;;;;;;;;;1.00;1.00;;;;;21.24;51.81;100848.65;111630;1252;19641;-31
2023/12/27 06:16:41;;;;;;;;;1.00;1.00;;;;;21.25;52.01;100853.61;111482;1252;20146;-30
2023/12/27 06:19:08;;;;;;;;;1.00;1.00;;;;;21.26;51.73;100856.13;111669;1260;20742;-31
2023/12/27 06:21:35;;;;;;;;;3.00;1.00;;;;;21.24;51.82;100855.08;111534;1252;19627;-32
2023/12/27 06:24:03;;;;;;;;;3.00;1.00;;;;;21.24;51.79;100856.77;111721;1267;18613;-31
2023/12/27 06:26:31;;;;;;;;;3.00;3.00;;;;;21.24;51.83;100859.77;111487;1252;20788;-31
2023/12/27 06:28:58;;;;;;;;;1.00;1.00;;;;;21.23;51.91;100860.42;111716;1252;19686;-31
2023/12/27 06:31:25;;;;;;;;;1.00;1.00;;;;;21.25;51.63;100862.45;111541;1264;20074;-31
2023/12/27 06:33:52;;;;;;;;;1.00;1.00;;;;;21.27;51.79;100861.73;111462;1267;19395;-31
2023/12/27 06:36:20;;;;;;;;;1.00;1.00;;;;;21.26;51.62;100869.47;111646;1252;19627;-31
2023/12/27 06:38:48;;;;;;;;;1.00;1.00;;;;;21.32;51.61;100879.13;111499;1252;20120;-31
2023/12/27 06:41:16;;;;;;;;;1.00;1.00;;;;;21.33;51.46;100881.14;111548;1253;21160;-31
2023/12/27 06:43:44;;;;;;;;;1.00;1.00;;;;;21.29;51.64;100883.86;111497;1253;19630;-31
2023/12/27 06:46:11;;;;;;;;;3.00;1.00;;;;;21.29;51.51;100893.02;111473;1260;21215;-31
2023/12/27 06:48:39;;;;;;;;;1.00;1.00;;;;;21.30;51.75;100893.40;111638;1252;20664;-31
2023/12/27 06:51:06;;;;;;;;;1.00;1.00;;;;;21.29;51.82;100901.30;111478;1252;19702;-31
2023/12/27 06:53:34;;;;;;;;;1.00;1.00;;;;;21.36;51.63;100908.13;111597;1267;18627;-31
2023/12/27 06:56:01;;;;;;;;;2.00;2.00;;;;;21.39;51.72;100913.19;111507;1252;21297;-31
2023/12/27 06:58:29;;;;;;;;;1.00;1.00;;;;;21.40;52.04;100918.86;111628;1252;19520;-30
2023/12/27 07:00:56;;;;;;;;;1.00;1.00;;;;;21.41;52.28;100922.73;111486;1252;20024;-31
2023/12/27 07:03:23;;;;;;;;;1.00;1.00;;;;;21.40;52.56;100921.20;111699;1253;20836;-31
2023/12/27 07:05:50;;;;;;;;;1.00;1.00;;;;;21.41;52.75;100927.58;111546;1268;18770;-31
2023/12/27 07:08:18;;;;;;;;;3.00;3.00;;;;;21.46;53.00;100931.67;111555;1253;18619;-32
2023/12/27 07:10:45;;;;;;;;;1.00;1.00;;;;;21.44;53.32;100935.77;111321;1261;20808;-31
2023/12/27 07:13:12;;;;;;;;;1.00;1.00;;;;;21.40;53.29;100937.45;111430;1267;18292;-31
2023/12/27 07:15:40;;;;;;;;;1.00;1.00;;;;;21.39;53.51;100945.57;111650;1260;18533;-31
2023/12/27 07:18:07;;;;;;;;;1.00;1.00;;;;;21.37;53.46;100949.88;111507;1267;19343;-31
2023/12/27 07:20:34;;;;;;;;;1.00;1.00;;;;;21.38;53.52;100953.52;111544;1253;19672;-31
2023/12/27 07:23:03;;;;;;;;;9.50;8.00;;;;;21.43;53.28;100962.03;111445;1267;20160;-31
2023/12/27 07:25:30;;;;;;;;;3.00;3.00;;;;;21.39;51.50;100968.45;111628;1252;20841;-31
2023/12/27 07:27:58;;;;;;;;;3.00;3.00;;;;;21.17;50.75;100969.14;111479;1253;19701;-31
2023/12/27 07:30:25;;;;;;;;;3.00;3.00;;;;;21.04;50.00;100981.44;111598;1260;19954;-31
2023/12/27 07:32:52;;;;;;;;;3.00;3.00;;;;;20.93;48.50;100988.69;111477;1252;20826;-31
2023/12/27 07:35:20;;;;;;;;;6.00;4.00;;;;;20.90;47.35;100992.70;111609;1264;19679;-31
2023/12/27 07:37:47;;;;;;;;;3.00;3.00;;;;;21.02;47.05;100995.48;111528;1268;19905;-31
2023/12/27 07:40:14;;;;;;;;;4.00;4.00;;;;;21.11;46.24;101006.36;111619;1267;20739;-31
2023/12/27 07:42:42;;;;;;;;;4.00;4.00;;;;;21.20;45.55;101015.23;111522;1252;19604;-31
2023/12/27 07:45:09;;;;;;;;;6.00;6.00;;;;;21.28;44.93;101015.18;111476;1252;20034;-31
2023/12/27 07:47:36;;;;;;;;;4.00;4.00;;;;;21.23;44.59;101018.86;111460;1252;20823;-31
2023/12/27 07:50:04;;;;;;;;;5.00;4.00;;;;;21.21;44.93;101023.09;111464;1253;20822;-30
2023/12/27 07:52:32;;;;;;;;;4.00;4.00;;;;;21.15;44.23;101029.53;111466;1267;20008;-30
2023/12/27 07:54:59;;;;;;;;;4.00;3.50;;;;;21.10;44.86;101035.23;111360;1252;20773;-31
2023/12/27 07:57:27;;;;;;;;;4.00;4.00;;;;;21.17;45.60;101047.03;111319;1253;18199;-31
2023/12/27 07:59:57;;;;;;;;;3.00;3.00;;;;;21.14;45.46;101042.71;111280;1263;21176;-31
2023/12/27 08:02:24;;;;;;;;;3.00;3.00;;;;;21.18;46.08;101057.51;111266;1253;20717;-30
2023/12/27 08:04:51;;;;;;;;;4.00;4.00;;;;;21.23;46.21;101059.62;111285;1253;19625;-31
2023/12/27 08:07:18;;;;;;;;;3.00;3.00;;;;;21.19;47.03;101064.64;111320;1253;20061;-30
2023/12/27 08:09:46;;;;;;;;;4.00;4.00;;;;;21.23;47.31;101068.45;111379;1253;19505;-31
2023/12/27 08:12:13;;;;;;;;;4.00;4.00;;;;;21.20;47.08;101072.17;111372;1268;18225;-30
2023/12/27 08:14:40;;;;;;;;;3.00;3.00;;;;;21.20;47.43;101080.41;111397;1268;18679;-30
2023/12/27 08:17:08;;;;;;;;;3.00;3.00;;;;;21.20;47.05;101081.65;111474;1261;19737;-30
2023/12/27 08:19:36;;;;;;;;;6.00;4.00;;;;;21.27;47.73;101095.27;111270;1268;19348;-31
2023/12/27 08:22:04;;;;;;;;;6.00;6.00;;;;;21.25;48.05;101096.02;111423;1268;17766;-31
2023/12/27 08:24:31;;;;;;;;;4.00;3.00;;;;;21.32;47.62;101108.33;111330;1269;19405;-31
2023/12/27 08:26:58;;;;;;;;;4.00;4.00;;;;;21.40;48.07;101118.12;111353;1253;19625;-31
2023/12/27 08:29:26;;;;;;;;;4.00;4.00;;;;;21.32;47.84;101119.45;111256;1253;20133;-31
2023/12/27 08:31:53;;;;;;;;;6.00;6.00;;;;;21.21;46.22;101126.73;111480;1268;19569;-31
2023/12/27 08:34:21;;;;;;;;;4.00;4.00;;;;;21.13;44.60;101129.01;111365;1269;18891;-31
2023/12/27 08:36:48;;;;;;;;;4.00;4.00;;;;;21.16;45.16;101135.78;111542;1268;20194;-30
2023/12/27 08:39:16;;;;;;;;;4.00;4.00;;;;;21.27;45.64;101133.91;111336;1269;20784;-30
2023/12/27 08:41:43;;;;;;;;;4.00;3.00;;;;;21.39;46.17;101139.05;111458;1268;19570;-31
2023/12/27 08:44:12;;;;;;;;;4.00;4.00;;;;;21.44;46.57;101136.63;111417;1268;18682;-30
2023/12/27 08:46:40;;;;;;;;;4.00;3.00;;;;;21.53;46.68;101134.91;111293;1269;21901;-30
2023/12/27 08:49:07;;;;;;;;;3.00;3.00;;;;;21.51;47.22;101138.29;111469;1268;18206;-31
2023/12/27 08:51:34;;;;;;;;;4.00;4.00;;;;;21.53;47.25;101143.48;111301;1253;20116;-31
2023/12/27 08:54:02;;;;;;;;;4.00;4.00;;;;;21.58;47.68;101147.32;111253;1252;20715;-31
2023/12/27 08:56:29;;;;;;;;;4.00;4.00;;;;;21.59;48.06;101152.02;111496;1253;19676;-31
2023/12/27 08:58:56;;;;;;;;;6.00;6.00;;;;;21.68;48.02;101150.79;111444;1253;20126;-31
2023/12/27 09:01:24;;;;;;;;;6.67;6.00;;;;;21.63;48.03;101153.23;111539;1252;21791;-31
2023/12/27 09:03:51;;;;;;;;;4.00;4.00;;;;;21.72;47.83;101153.16;111507;1268;18185;-30
2023/12/27 09:06:18;;;;;;;;;4.00;3.00;;;;;21.79;47.71;101161.80;111617;1252;18727;-31
2023/12/27 09:08:47;;;;;;;;;4.00;3.00;;;;;21.80;48.19;101159.61;111423;1260;20611;-30
2023/12/27 09:11:16;;;;;;;;;5.50;5.50;;;;;21.76;48.14;101163.48;111394;1254;19702;-31
2023/12/27 09:13:43;;;;;;;;;4.00;4.00;;;;;21.74;48.22;101163.41;111369;1254;20025;-31
2023/12/27 09:16:10;;;;;;;;;4.00;4.00;;;;;21.76;48.38;101163.54;111404;1252;19314;-31
2023/12/27 09:18:37;;;;;;;;;5.00;5.00;;;;;21.75;48.25;101169.74;111400;1252;19177;-30
2023/12/27 09:21:06;;;;;;;;;4.00;4.00;;;;;21.73;48.56;101173.05;111405;1268;20495;-30
2023/12/27 09:23:33;;;;;;;;;6.33;6.33;;;;;21.82;48.27;101173.32;111441;1253;20919;-30
2023/12/27 09:26:00;;;;;;;;;4.00;4.00;;;;;21.83;48.61;101175.95;111429;1260;19547;-30
2023/12/27 09:28:27;;;;;;;;;4.00;4.00;;;;;21.81;48.33;101176.80;111610;1260;18826;-30
2023/12/27 09:30:55;;;;;;;;;6.50;6.50;;;;;21.88;47.88;101177.76;111542;1252;20986;-30
2023/12/27 09:33:22;;;;;;;;;4.00;4.00;;;;;21.87;47.75;101174.53;111422;1254;19663;-30
2023/12/27 09:35:49;;;;;;;;;10.00;7.00;;;;;21.84;47.88;101171.14;111079;1269;18698;-30
2023/12/27 09:38:17;;;;;;;;;5.00;4.50;;;;;21.78;48.29;101175.27;111238;1254;20790;-30
2023/12/27 09:40:44;;;;;;;;;5.00;4.00;;;;;21.83;47.94;101174.58;111093;1254;21355;-31
2023/12/27 09:43:12;;;;;;;;;4.50;4.50;;;;;21.79;48.50;101173.90;111074;1269;18539;-30
2023/12/27 09:45:39;;;;;;;;;5.00;5.00;;;;;21.76;48.51;101177.16;111172;1261;20743;-31
2023/12/27 09:48:06;;;;;;;;;5.00;5.00;;;;;21.76;49.00;101180.27;111033;1254;19717;-30
2023/12/27 09:50:34;;;;;;;;;6.00;5.00;;;;;21.77;48.66;101177.98;111276;1254;20274;-30
2023/12/27 09:53:01;;;;;;;;;5.50;5.50;;;;;21.75;48.79;101183.77;111129;1254;20813;-30
2023/12/27 09:55:28;;;;;;;;;6.00;5.00;;;;;21.73;48.58;101182.82;111348;1254;19667;-30
2023/12/27 09:57:55;;;;;;;;;7.50;7.00;;;;;21.69;48.55;101189.46;111063;1270;20082;-31
2023/12/27 10:00:23;;;;;;;;;14.00;13.00;;;;;21.54;46.70;101188.67;111398;1270;19370;-31
2023/12/27 10:02:50;;;;;;;;;28.00;20.00;;;;;21.42;45.27;101192.96;111140;1256;19698;-31
2023/12/27 10:05:17;;;;;;;;;23.00;19.00;;;;;21.30;44.64;101195.89;111412;1270;18784;-31
2023/12/27 10:07:45;;;;;;;;;22.00;18.00;;;;;21.21;42.66;101191.02;111166;1254;19456;-31
2023/12/27 10:10:12;;;;;;;;;13.00;12.00;;;;;21.13;42.17;101196.56;111283;1254;21142;-31
2023/12/27 10:12:41;;;;;;;;;12.00;11.00;;;;;21.05;41.12;101196.99;111187;1270;18770;-31
2023/12/27 10:15:08;;;;;;;;;15.00;12.00;;;;;21.00;40.62;101197.29;111340;1262;20727;-31
2023/12/27 10:17:36;;;;;;;;;13.00;12.00;;;;;20.95;39.63;101195.18;111084;1260;20084;-31
2023/12/27 10:20:06;;;;;;;;;7.67;7.67;;;;;20.86;38.94;101197.77;111365;1262;20178;-31
2023/12/27 10:22:33;;;;;;;;;9.50;8.00;;;;;20.78;38.38;101194.25;111389;1257;20886;-31
2023/12/27 10:25:00;;;;;;;;;7.00;7.00;;;;;20.72;37.76;101194.42;111265;1270;18851;-31
2023/12/27 10:27:28;;;;;;;;;12.00;9.00;;;;;20.70;37.35;101193.37;111407;1262;21219;-31
2023/12/27 10:29:56;;;;;;;;;9.00;8.00;;;;;20.72;37.22;101191.48;111269;1254;20755;-31
2023/12/27 10:32:25;;;;;;;;;9.00;9.00;;;;;20.68;36.83;101199.89;111393;1254;21162;-31
2023/12/27 10:34:52;;;;;;;;;7.00;6.00;;;;;20.63;36.61;101205.71;111073;1256;20120;-31
2023/12/27 10:37:19;;;;;;;;;7.00;7.00;;;;;20.60;36.38;101215.16;111211;1262;22136;-31
2023/12/27 10:39:47;;;;;;;;;9.00;7.00;;;;;20.55;36.07;101214.35;111026;1264;19561;-31
2023/12/27 10:42:16;;;;;;;;;6.00;6.00;;;;;20.56;35.85;101213.70;111212;1255;21342;-31
2023/12/27 10:44:43;;;;;;;;;7.00;6.50;;;;;20.53;35.61;101211.44;111360;1270;19380;-31
2023/12/27 10:47:11;;;;;;;;;10.00;9.00;;;;;20.50;35.56;101216.69;111217;1270;18241;-31
2023/12/27 10:49:39;;;;;;;;;8.00;7.00;;;;;20.45;35.25;101216.37;111278;1267;21314;-31
2023/12/27 10:52:06;;;;;;;;;9.00;7.00;;;;;20.45;34.99;101215.33;111119;1256;20780;-31
2023/12/27 10:54:33;;;;;;;;;9.00;7.00;;;;;20.42;34.68;101220.59;111258;1263;19626;-31
2023/12/27 10:57:01;;;;;;;;;4.00;4.00;;;;;20.36;34.81;101222.30;111204;1254;20065;-31
2023/12/27 10:59:28;;;;;;;;;6.00;6.00;;;;;20.34;34.73;101224.98;111092;1261;21027;-31
2023/12/27 11:01:55;;;;;;;;;6.00;6.00;;;;;20.36;34.65;101230.30;111273;1254;19659;-31
2023/12/27 11:04:23;;;;;;;;;6.00;6.00;;;;;20.34;34.26;101227.55;111059;1269;20069;-31
2023/12/27 11:06:50;;;;;;;;;7.00;6.00;;;;;20.30;34.38;101235.61;111344;1267;19400;-31
2023/12/27 11:09:17;;;;;;;;;7.00;6.00;;;;;20.30;33.92;101237.63;111129;1255;19699;-31
2023/12/27 11:11:44;;;;;;;;;6.00;4.00;;;;;20.29;33.92;101240.92;111319;1269;18892;-31
2023/12/27 11:14:12;;;;;;;;;5.00;5.00;;;;;20.26;34.15;101239.69;111087;1269;19377;-31
2023/12/27 11:16:39;;;;;;;;;6.00;6.00;;;;;20.26;33.82;101240.30;111060;1254;19555;-31